Dunwoody, GA

9:36 PM EDT on March 29, 2015 (GMT -0400)
APRSWXNET Dunwoody GA US | | Change Station
CLOSE
Current Station
Personal Weather Station
Location: Dunwoody, GA
Elevation: 1144 ft
Nearby Weather Stations

Elev 1144 ft 33.94 °N, 84.32 °W | Updated 33 minutes ago

Overcast
Overcast
57 °F
Feels Like 57 °F
N
0
Wind Variable Wind from ESE
Gusts 3.0 mph

Today
High -- | Low -- °F
--% Chance of Precip.
Yesterday
High -- | Low -- °F
Precip. -- in
7:29 AM 7:55 PM
Waxing Gibbous, 75% visible
Pressure 30.25 in
Visibility 10.0 miles
Clouds Overcast 5000 ft
Dew Point 27 °F
Humidity 31%
Rainfall in
Snow Depth Not available.
UV 0 out of 12
Pollen 9.50 out of 12
Air Quality Not available.
Flu Activity Not available.
METAR KPDK 300053Z 16005KT 10SM OVC050 14/M04 A3023 RMK AO2 SLP244 T01391039

More Conditions Fewer Conditions

Pressure 30.25 in
Visibility 10.0 miles
Clouds Overcast 5000 ft
Dew Point 27 °F
Humidity 31%
Rainfall in
Snow Depth Not available.
UV 0 out of 12
Pollen 9.50 out of 12
Air Quality Not available.
Flu Activity Not available.
METAR KPDK 300053Z 16005KT 10SM OVC050 14/M04 A3023 RMK AO2 SLP244 T01391039

More Conditions Fewer Conditions

10-Day Weather Forecast

Almanac

Astronomy

Mar. 29, 2015 Rise Set
Actual Time
Civil Twilight
Nautical Twilight
Astronomical Twilight
Moon
Length of Visible Light
Length of Day
Tomorrow will be .
, % of the Moon is Illuminated

Today's Extremes

State Highs State Lows

Community

WunderPhotos

Upload Photos

1,809,392 photos uploaded!

WunderBlogs® & News

Nearby

Air Quality

  Air Quality AQ Index Pollutant
Not available.

Snow Depth

Station Depth Elevation

Earthquake Activity

City Distance Mag. Time & Date
Minimum magnitude displayed is 2.5.

Coastal Water Temperatures

Place Temperature

Stations

Nearby Weather Stations

Station Location Temp. Windchill Dew Point Humidity Wind Precip. Elev Updated Type